Aviation Digital Data Service (ADDS)

Output produced by METARs form (0036 UTC 21 January 2018)
found at http://aviationweather.gov/adds/metars/
 
LFLY 210030Z AUTO 23006KT 180V280 9999 -RA SCT042/// BKN049/// BKN058/// ///TCU 09/07 Q1010 BECMG BKN030